Time;durP1;ratioP1;P1;durP2;ratioP2;P2;SDS_P1;SDS_P2;PMS_P1;PMS_P2;Temp;Humidity;BMP_temperature;BMP_pressure;BME280_temperature;BME280_humidity;BME280_pressure;Samples;Min_cycle;Max_cycle;Signal;HPM_P1;HPM_P2
2021/11/11 00:00:43;;;;;;;16.03;11.53;;;5.00;99.90;;;;;;5133673;28;20387;-81
2021/11/11 00:03:09;;;;;;;27.13;13.50;;;4.90;99.90;;;;;;5133124;28;20367;-80
2021/11/11 00:05:36;;;;;;;22.00;12.90;;;4.80;99.90;;;;;;5133637;28;20475;-80
2021/11/11 00:08:03;;;;;;;29.50;14.77;;;4.50;99.90;;;;;;5133802;28;20388;-81
2021/11/11 00:10:31;;;;;;;18.43;11.33;;;4.50;99.90;;;;;;5133853;28;20158;-81
2021/11/11 00:12:59;;;;;;;19.80;12.70;;;4.60;99.90;;;;;;5134242;28;20388;-80
2021/11/11 00:15:27;;;;;;;14.37;12.03;;;4.70;99.90;;;;;;5133653;28;20490;-80
2021/11/11 00:17:53;;;;;;;16.67;10.23;;;4.60;99.90;;;;;;5097031;28;20390;-80
2021/11/11 00:20:22;;;;;;;25.90;11.30;;;4.70;99.90;;;;;;5133627;28;20417;-81
2021/11/11 00:22:48;;;;;;;15.00;10.33;;;4.80;99.90;;;;;;5133406;28;20508;-81
2021/11/11 00:25:18;;;;;;;13.23;10.13;;;4.90;99.90;;;;;;5136476;28;20386;-81
2021/11/11 00:27:45;;;;;;;17.53;9.30;;;5.00;99.90;;;;;;5123164;27;20392;-79
2021/11/11 00:30:12;;;;;;;17.10;9.43;;;4.90;99.90;;;;;;5140425;27;20370;-80
2021/11/11 00:32:39;;;;;;;27.07;8.67;;;4.90;99.90;;;;;;5118752;28;20432;-81
2021/11/11 00:35:08;;;;;;;34.20;11.50;;;4.90;99.90;;;;;;5133284;27;20446;-81
2021/11/11 00:37:34;;;;;;;16.60;10.90;;;4.20;99.90;;;;;;5135074;28;20379;-81
2021/11/11 00:40:00;;;;;;;26.27;11.03;;;3.90;99.90;;;;;;5134567;28;20484;-81
2021/11/11 00:42:25;;;;;;;18.87;11.10;;;3.60;99.90;;;;;;5135041;28;20186;-81
2021/11/11 00:44:51;;;;;;;13.67;10.07;;;3.60;99.90;;;;;;5134739;28;20171;-81
2021/11/11 00:47:17;;;;;;;25.93;11.10;;;3.40;99.90;;;;;;5134867;28;20181;-81
2021/11/11 00:49:44;;;;;;;16.23;10.47;;;3.50;99.90;;;;;;5134872;28;20225;-81
2021/11/11 00:52:11;;;;;;;14.40;10.30;;;3.50;99.90;;;;;;5134238;28;20359;-81
2021/11/11 00:54:39;;;;;;;15.13;8.20;;;3.70;99.90;;;;;;5134233;28;20852;-81
2021/11/11 00:57:24;;;;;;;15.97;9.40;;;3.90;99.90;;;;;;5115427;28;20358;-81
2021/11/11 00:59:50;;;;;;;12.97;9.17;;;4.10;99.90;;;;;;5071843;28;20410;-81
2021/11/11 01:02:16;;;;;;;10.97;8.57;;;4.00;99.90;;;;;;5038185;28;20526;-80
2021/11/11 01:04:42;;;;;;;26.33;11.50;;;4.20;99.90;;;;;;5071078;28;20183;-81
2021/11/11 01:07:09;;;;;;;17.90;9.93;;;4.30;99.90;;;;;;5070711;28;20175;-79
2021/11/11 01:09:36;;;;;;;16.40;9.90;;;4.40;99.90;;;;;;5055144;28;20192;-79
2021/11/11 01:12:03;;;;;;;18.53;10.63;;;4.40;99.90;;;;;;5055151;28;20369;-81
2021/11/11 01:14:31;;;;;;;10.83;9.50;;;4.40;99.90;;;;;;5070614;28;20394;-81
2021/11/11 01:16:56;;;;;;;17.00;11.00;;;4.40;99.90;;;;;;5069902;28;20406;-81
2021/11/11 01:19:23;;;;;;;17.10;10.97;;;4.40;99.90;;;;;;5054163;28;20398;-80
2021/11/11 01:21:50;;;;;;;22.80;11.77;;;4.50;99.90;;;;;;5070455;28;20218;-80
2021/11/11 01:24:36;;;;;;;17.47;10.70;;;4.40;99.90;;;;;;5069814;28;20458;-80
2021/11/11 01:27:03;;;;;;;13.27;8.80;;;4.30;99.90;;;;;;5032978;28;20415;-81
2021/11/11 01:29:29;;;;;;;14.83;10.00;;;4.30;99.90;;;;;;5049589;28;20403;-81
2021/11/11 01:31:55;;;;;;;34.57;9.80;;;4.00;99.90;;;;;;5093907;28;20863;-81
2021/11/11 01:34:25;;;;;;;22.60;10.50;;;4.20;99.90;;;;;;5113241;28;20155;-81
2021/11/11 01:36:50;;;;;;;24.20;12.20;;;4.30;99.90;;;;;;5111102;28;20187;-80
2021/11/11 01:39:16;;;;;;;33.90;10.33;;;4.40;99.90;;;;;;5110659;28;20555;-80
2021/11/11 01:41:45;;;;;;;14.43;9.93;;;4.20;99.90;;;;;;5093266;28;20675;-79
2021/11/11 01:44:14;;;;;;;27.60;9.20;;;4.20;99.90;;;;;;5110165;28;20167;-80
2021/11/11 01:46:40;;;;;;;58.07;11.20;;;4.10;99.90;;;;;;5109831;28;20417;-80
2021/11/11 01:49:05;;;;;;;20.37;10.47;;;3.90;99.90;;;;;;5109871;28;20371;-80
2021/11/11 01:51:31;;;;;;;13.43;8.40;;;4.00;99.90;;;;;;5109895;28;20170;-81
2021/11/11 01:53:58;;;;;;;22.50;11.53;;;4.10;99.90;;;;;;5110392;28;20433;-81
2021/11/11 01:56:24;;;;;;;41.37;10.63;;;3.70;99.90;;;;;;5110202;28;20392;-81
2021/11/11 01:58:51;;;;;;;24.40;9.00;;;3.60;99.90;;;;;;5111225;28;20415;-81
2021/11/11 02:01:18;;;;;;;25.73;9.83;;;3.70;99.90;;;;;;5132190;28;20478;-80
2021/11/11 02:03:44;;;;;;;15.43;9.97;;;3.70;99.90;;;;;;5132555;28;20414;-81
2021/11/11 02:06:11;;;;;;;21.13;11.10;;;3.10;99.90;;;;;;5132569;28;20392;-81
2021/11/11 02:08:37;;;;;;;19.47;11.23;;;2.90;99.90;;;;;;5132719;28;20388;-81
2021/11/11 02:11:03;;;;;;;25.10;11.47;;;3.10;99.90;;;;;;5133265;28;20411;-81
2021/11/11 02:13:30;;;;;;;18.27;10.77;;;3.00;99.90;;;;;;5097242;28;20499;-81
2021/11/11 02:15:57;;;;;;;14.20;10.70;;;3.10;99.90;;;;;;5133805;28;20391;-81
2021/11/11 02:18:22;;;;;;;26.63;11.43;;;3.20;99.90;;;;;;5131582;28;20395;-81
2021/11/11 02:20:48;;;;;;;21.40;12.30;;;3.40;99.90;;;;;;5068069;28;20432;-80
2021/11/11 02:23:17;;;;;;;13.80;9.47;;;3.30;99.90;;;;;;5067884;28;20188;-80
2021/11/11 02:25:43;;;;;;;26.47;12.50;;;3.60;99.90;;;;;;5068040;28;20407;-81
2021/11/11 02:28:14;;;;;;;20.87;11.53;;;3.50;99.90;;;;;;5071591;28;20384;-80
2021/11/11 02:30:44;;;;;;;25.87;13.20;;;3.30;99.90;;;;;;5071927;28;20413;-79
2021/11/11 02:33:12;;;;;;;31.43;12.30;;;3.20;99.90;;;;;;5071706;28;20377;-81
2021/11/11 02:35:39;;;;;;;20.30;11.43;;;3.10;99.90;;;;;;5072175;28;20428;-80
2021/11/11 02:38:05;;;;;;;16.77;10.97;;;3.20;99.90;;;;;;5055199;28;20399;-81
2021/11/11 02:40:32;;;;;;;19.17;10.40;;;3.60;99.90;;;;;;5071598;28;20458;-79
2021/11/11 02:42:58;;;;;;;21.80;11.57;;;3.80;99.90;;;;;;5072306;28;20438;-80
2021/11/11 02:45:28;;;;;;;20.73;12.37;;;4.10;99.90;;;;;;5072651;28;20509;-80
2021/11/11 02:47:55;;;;;;;24.30;11.47;;;4.20;99.90;;;;;;5073216;28;20160;-81
2021/11/11 02:50:21;;;;;;;19.13;11.37;;;4.00;99.90;;;;;;5072834;28;20762;-80
2021/11/11 02:52:49;;;;;;;36.17;13.07;;;4.00;99.90;;;;;;5112817;28;20435;-81
2021/11/11 02:55:15;;;;;;;16.53;11.90;;;3.70;99.90;;;;;;5135307;28;20403;-81
2021/11/11 02:58:02;;;;;;;28.13;13.37;;;3.80;99.90;;;;;;5072614;28;20410;-81
2021/11/11 03:00:33;;;;;;;29.57;13.10;;;4.00;99.90;;;;;;5072451;28;20410;-81
2021/11/11 03:02:59;;;;;;;32.40;14.07;;;4.00;99.90;;;;;;5055976;28;20500;-79
2021/11/11 03:05:29;;;;;;;16.17;11.17;;;3.60;99.90;;;;;;5039389;28;20858;-80
2021/11/11 03:07:55;;;;;;;38.47;14.10;;;3.80;99.90;;;;;;5072896;28;20633;-81
2021/11/11 03:10:26;;;;;;;24.40;11.40;;;4.00;99.90;;;;;;5072406;28;20386;-81
2021/11/11 03:12:53;;;;;;;22.17;12.33;;;4.20;99.90;;;;;;5072644;28;20936;-79
2021/11/11 03:15:20;;;;;;;26.00;9.70;;;4.20;99.90;;;;;;5073078;28;20482;-80
2021/11/11 03:17:47;;;;;;;13.43;7.90;;;4.20;99.90;;;;;;5072572;28;20418;-81
2021/11/11 03:20:14;;;;;;;13.70;8.37;;;4.30;99.90;;;;;;5072777;28;20448;-80
2021/11/11 03:22:42;;;;;;;13.50;9.40;;;4.20;99.90;;;;;;5071348;28;20479;-80
2021/11/11 03:25:10;;;;;;;18.00;7.47;;;4.00;99.90;;;;;;5073134;28;20423;-80
2021/11/11 03:27:37;;;;;;;10.90;8.40;;;4.00;99.90;;;;;;5072975;28;20368;-80
2021/11/11 03:30:06;;;;;;;9.10;8.17;;;3.90;99.90;;;;;;5113631;28;20407;-80
2021/11/11 03:32:32;;;;;;;34.67;9.40;;;4.10;99.90;;;;;;5134843;28;20396;-80
2021/11/11 03:34:57;;;;;;;28.60;7.73;;;4.20;99.90;;;;;;5135465;28;20369;-80
2021/11/11 03:37:23;;;;;;;7.83;6.60;;;4.10;99.90;;;;;;5135149;28;20172;-80
2021/11/11 03:39:50;;;;;;;13.57;6.83;;;4.00;99.90;;;;;;5116199;28;20323;-80
2021/11/11 03:42:16;;;;;;;10.93;7.83;;;3.90;99.90;;;;;;5135202;28;20211;-80
2021/11/11 03:44:43;;;;;;;15.27;7.10;;;3.90;99.90;;;;;;5134902;28;20453;-80
2021/11/11 03:47:09;;;;;;;10.03;7.70;;;3.50;99.90;;;;;;5133648;28;20388;-80
2021/11/11 03:49:36;;;;;;;14.57;7.97;;;3.20;99.90;;;;;;5114919;28;20741;-80
2021/11/11 03:52:03;;;;;;;14.23;6.67;;;2.90;99.90;;;;;;5131193;28;20374;-81
2021/11/11 03:54:31;;;;;;;16.73;8.50;;;2.60;99.90;;;;;;5132166;28;20377;-80
2021/11/11 03:56:58;;;;;;;12.67;8.53;;;2.50;99.90;;;;;;5132047;28;20714;-80
2021/11/11 03:59:25;;;;;;;12.33;6.37;;;2.60;99.90;;;;;;5132515;28;20385;-81
2021/11/11 04:01:52;;;;;;;12.67;8.70;;;2.90;99.90;;;;;;5114617;28;20427;-80
2021/11/11 04:04:19;;;;;;;19.50;9.47;;;3.20;99.90;;;;;;5132531;28;20370;-81
2021/11/11 04:06:46;;;;;;;12.67;8.70;;;3.40;99.90;;;;;;5131848;28;20395;-81
2021/11/11 04:09:12;;;;;;;13.10;10.10;;;3.40;99.90;;;;;;5132738;28;20455;-80
2021/11/11 04:11:37;;;;;;;14.27;10.73;;;3.50;99.90;;;;;;5133120;28;20399;-80
2021/11/11 04:14:05;;;;;;;12.50;9.43;;;3.70;99.90;;;;;;5132262;28;20486;-79
2021/11/11 04:16:31;;;;;;;16.57;9.07;;;3.60;99.90;;;;;;5131945;28;20232;-81
2021/11/11 04:18:57;;;;;;;10.77;8.47;;;3.70;99.90;;;;;;5136409;27;20410;-80
2021/11/11 04:21:23;;;;;;;17.60;11.00;;;3.90;99.90;;;;;;5097330;28;20428;-78
2021/11/11 04:23:51;;;;;;;14.33;10.40;;;3.80;99.90;;;;;;5081255;28;20182;-80
2021/11/11 04:26:21;;;;;;;17.63;8.97;;;3.80;99.90;;;;;;5098191;28;20392;-78
2021/11/11 04:28:56;;;;;;;22.50;10.87;;;3.90;99.90;;;;;;5094660;28;20380;-81
2021/11/11 04:31:27;;;;;;;23.97;10.03;;;4.00;99.90;;;;;;5076449;28;20395;-81
2021/11/11 04:33:59;;;;;;;22.33;10.87;;;4.00;99.90;;;;;;5090214;28;20440;-81
2021/11/11 04:42:28;;;;;;;25.50;7.83;;;3.20;99.90;;;;;;5091639;28;20428;-80
2021/11/11 05:01:36;;;;;;;10.93;8.80;;;3.20;99.90;;;;;;5057079;28;20453;-81
2021/11/11 05:04:02;;;;;;;9.30;6.63;;;3.40;99.90;;;;;;5057351;28;20378;-80
2021/11/11 05:06:27;;;;;;;9.80;7.20;;;3.50;99.90;;;;;;5057290;28;20424;-80
2021/11/11 05:08:55;;;;;;;12.07;8.57;;;3.60;99.90;;;;;;5056384;28;20200;-80
2021/11/11 05:11:21;;;;;;;26.07;8.60;;;3.50;99.90;;;;;;5051703;28;20269;-81
2021/11/11 05:13:47;;;;;;;12.77;8.77;;;3.10;99.90;;;;;;5051505;28;20415;-81
2021/11/11 05:16:13;;;;;;;15.50;8.17;;;3.20;99.90;;;;;;5053271;28;20149;-80
2021/11/11 05:18:39;;;;;;;15.93;7.77;;;3.40;99.90;;;;;;5059754;28;20399;-81
2021/11/11 05:21:05;;;;;;;22.33;12.60;;;3.50;99.90;;;;;;5074094;28;20399;-79
2021/11/11 05:23:31;;;;;;;10.30;8.40;;;3.60;99.90;;;;;;5075665;28;20221;-79
2021/11/11 05:25:57;;;;;;;15.30;9.37;;;3.70;99.90;;;;;;5075593;28;20429;-80
2021/11/11 05:28:23;;;;;;;17.43;8.33;;;3.60;99.90;;;;;;5105963;28;20189;-78
2021/11/11 05:30:49;;;;;;;13.87;8.40;;;3.40;99.90;;;;;;5136927;28;20411;-79
2021/11/11 05:33:15;;;;;;;13.40;10.00;;;3.10;99.90;;;;;;5107640;28;20265;-80
2021/11/11 05:35:41;;;;;;;12.30;8.27;;;3.20;99.90;;;;;;5116867;28;20351;-80
2021/11/11 05:38:08;;;;;;;15.60;9.67;;;3.30;99.90;;;;;;5116485;28;20387;-80
2021/11/11 05:40:34;;;;;;;15.90;9.80;;;3.30;99.90;;;;;;5132031;28;20467;-79
2021/11/11 05:43:00;;;;;;;14.70;9.77;;;3.40;99.90;;;;;;5085752;28;20497;-79
2021/11/11 05:45:26;;;;;;;13.13;10.07;;;3.50;99.90;;;;;;5137568;28;20366;-80
2021/11/11 05:47:53;;;;;;;11.00;8.90;;;3.70;99.90;;;;;;5119793;28;20377;-79
2021/11/11 05:50:20;;;;;;;17.37;9.77;;;3.80;99.90;;;;;;5137268;28;20435;-80
2021/11/11 05:52:46;;;;;;;10.87;8.73;;;3.80;99.90;;;;;;5137220;27;20451;-80
2021/11/11 05:55:13;;;;;;;13.43;8.33;;;3.80;99.90;;;;;;5136415;28;20383;-79
2021/11/11 05:57:39;;;;;;;14.17;9.10;;;3.80;99.90;;;;;;5134958;28;20370;-81
2021/11/11 06:00:08;;;;;;;14.70;8.97;;;3.80;99.90;;;;;;5116551;28;20362;-81
2021/11/11 06:02:34;;;;;;;9.17;7.43;;;3.70;99.90;;;;;;5136381;28;20470;-80
2021/11/11 06:05:00;;;;;;;14.30;9.17;;;3.60;99.90;;;;;;5120256;28;20442;-80
2021/11/11 06:07:38;;;;;;;12.70;8.30;;;3.50;99.90;;;;;;5101476;28;20238;-80
2021/11/11 06:10:06;;;;;;;22.43;11.60;;;3.60;99.90;;;;;;5136708;28;20367;-81
2021/11/11 06:12:32;;;;;;;18.17;10.17;;;3.60;99.90;;;;;;5122504;28;20402;-80
2021/11/11 06:14:58;;;;;;;12.63;8.00;;;3.70;99.90;;;;;;5123098;28;20469;-80
2021/11/11 06:17:24;;;;;;;12.80;7.50;;;3.60;99.90;;;;;;5118771;28;20182;-81
2021/11/11 06:19:51;;;;;;;12.70;6.20;;;3.50;99.90;;;;;;5136294;28;20166;-80
2021/11/11 06:22:19;;;;;;;19.87;9.30;;;3.40;99.90;;;;;;5135588;28;20441;-80
2021/11/11 06:24:45;;;;;;;15.03;9.50;;;3.20;99.90;;;;;;5136298;28;20366;-81
2021/11/11 06:27:12;;;;;;;17.80;10.87;;;2.90;99.90;;;;;;5117531;28;20506;-80
2021/11/11 06:29:38;;;;;;;14.60;10.27;;;3.10;99.90;;;;;;5136270;28;20515;-80
2021/11/11 06:32:04;;;;;;;27.47;8.07;;;3.10;99.90;;;;;;5136410;28;20377;-79
2021/11/11 06:34:30;;;;;;;14.70;7.07;;;3.30;99.90;;;;;;5134877;28;20412;-80
2021/11/11 06:36:57;;;;;;;9.37;8.07;;;3.50;99.90;;;;;;5133571;28;20414;-79
2021/11/11 06:39:23;;;;;;;9.47;7.73;;;3.60;99.90;;;;;;5117286;28;20501;-80
2021/11/11 06:41:49;;;;;;;31.40;9.50;;;3.60;99.90;;;;;;5134643;28;20430;-81
2021/11/11 06:44:22;;;;;;;13.80;7.70;;;3.70;99.90;;;;;;5116885;28;20385;-80
2021/11/11 06:46:49;;;;;;;19.33;8.30;;;3.50;99.90;;;;;;5117050;28;20385;-80
2021/11/11 06:49:15;;;;;;;30.67;12.20;;;3.10;99.90;;;;;;5133837;28;20402;-81
2021/11/11 06:51:41;;;;;;;13.10;7.07;;;3.00;99.90;;;;;;5123332;28;20406;-80
2021/11/11 06:54:08;;;;;;;9.27;7.60;;;3.00;99.90;;;;;;5117080;28;20551;-79
2021/11/11 06:56:35;;;;;;;10.83;8.03;;;3.10;99.90;;;;;;5133734;28;20181;-79
2021/11/11 06:59:01;;;;;;;10.80;7.43;;;3.30;99.90;;;;;;5115274;28;20401;-81
2021/11/11 07:01:26;;;;;;;17.73;9.10;;;3.50;99.90;;;;;;5134318;28;20422;-80
2021/11/11 07:03:52;;;;;;;20.67;8.80;;;3.60;99.90;;;;;;5132281;28;20241;-80
2021/11/11 07:06:18;;;;;;;13.20;8.80;;;3.60;99.90;;;;;;5129531;28;20261;-81
2021/11/11 07:08:44;;;;;;;16.93;7.87;;;3.40;99.90;;;;;;5111090;28;20676;-81
2021/11/11 07:11:10;;;;;;;9.13;7.83;;;2.90;99.90;;;;;;5130979;27;20186;-82
2021/11/11 07:13:36;;;;;;;13.37;8.17;;;3.00;99.90;;;;;;5106126;28;20166;-82
2021/11/11 07:16:03;;;;;;;14.13;8.10;;;3.10;99.90;;;;;;5126570;28;20181;-81
2021/11/11 07:18:29;;;;;;;10.93;8.40;;;3.20;99.90;;;;;;5124026;28;20210;-81
2021/11/11 07:20:55;;;;;;;17.30;9.43;;;2.80;99.90;;;;;;5107282;28;20421;-81
2021/11/11 07:23:23;;;;;;;13.53;8.93;;;2.80;99.90;;;;;;5101366;28;20650;-81
2021/11/11 07:25:50;;;;;;;18.17;8.90;;;3.00;99.90;;;;;;5105488;28;20186;-80
2021/11/11 07:28:17;;;;;;;16.20;8.57;;;2.80;99.90;;;;;;5123505;28;20428;-81
2021/11/11 07:30:45;;;;;;;11.40;8.90;;;3.20;99.90;;;;;;5107892;28;20411;-80
2021/11/11 07:33:12;;;;;;;10.17;7.50;;;3.30;99.90;;;;;;5105971;28;20406;-82
2021/11/11 07:35:40;;;;;;;14.00;8.50;;;3.30;99.90;;;;;;5114325;28;20402;-82
2021/11/11 07:38:07;;;;;;;24.00;9.33;;;3.40;99.90;;;;;;5122812;28;20488;-81
2021/11/11 07:40:35;;;;;;;18.85;12.80;;;3.50;99.90;;;;;;5089625;28;20439;-81
2021/11/11 07:43:01;;;;;;;19.83;10.57;;;3.70;99.90;;;;;;5120289;28;20284;-80
2021/11/11 07:45:28;;;;;;;20.00;8.30;;;3.70;99.90;;;;;;5104601;28;20535;-81
2021/11/11 07:48:02;;;;;;;13.07;8.63;;;3.80;99.90;;;;;;5118994;28;20427;-81
2021/11/11 07:50:33;;;;;;;9.73;7.27;;;3.90;99.90;;;;;;5068648;28;20808;-80
2021/11/11 07:53:01;;;;;;;12.30;9.33;;;3.80;99.90;;;;;;5116986;28;20417;-80
2021/11/11 07:55:29;;;;;;;17.40;10.17;;;3.80;99.90;;;;;;5100970;28;20509;-79
2021/11/11 07:57:56;;;;;;;11.47;8.80;;;3.80;99.90;;;;;;5058162;28;20415;-80
2021/11/11 08:00:29;;;;;;;10.63;9.43;;;3.90;99.90;;;;;;5035309;28;20433;-79
2021/11/11 08:03:05;;;;;;;12.73;9.13;;;3.80;99.90;;;;;;5026373;28;21010;-79
2021/11/11 08:05:34;;;;;;;12.13;9.60;;;3.90;99.90;;;;;;4979585;28;20482;-79
2021/11/11 08:08:00;;;;;;;23.60;8.83;;;3.80;99.90;;;;;;5032256;28;20803;-80
2021/11/11 08:10:26;;;;;;;28.77;14.43;;;3.50;99.90;;;;;;5033461;28;20438;-80
2021/11/11 08:12:52;;;;;;;14.53;9.27;;;3.50;99.90;;;;;;5019760;28;20440;-80
2021/11/11 08:15:19;;;;;;;15.50;9.33;;;3.70;99.90;;;;;;5033577;28;20189;-81
2021/11/11 08:17:45;;;;;;;18.17;10.93;;;3.90;99.90;;;;;;5032985;28;20203;-80
2021/11/11 08:20:13;;;;;;;18.83;10.23;;;3.70;99.90;;;;;;5025495;28;20572;-81
2021/11/11 08:22:40;;;;;;;21.83;8.77;;;3.70;99.90;;;;;;5017967;28;20478;-81
2021/11/11 08:25:09;;;;;;;22.23;9.93;;;3.40;99.90;;;;;;5030604;28;20451;-81
2021/11/11 08:27:35;;;;;;;16.00;10.63;;;3.30;99.90;;;;;;5038391;28;20424;-80
2021/11/11 08:30:03;;;;;;;18.40;12.27;;;3.60;99.90;;;;;;5055496;28;20416;-81
2021/11/11 08:32:29;;;;;;;15.53;11.97;;;3.40;99.90;;;;;;5038014;28;20544;-82
2021/11/11 08:34:56;;;;;;;18.00;9.30;;;3.10;99.90;;;;;;5119478;27;20408;-82
2021/11/11 08:37:22;;;;;;;20.60;8.87;;;3.40;99.90;;;;;;5112562;27;20403;-80
2021/11/11 08:39:48;;;;;;;13.57;10.33;;;3.70;99.90;;;;;;5097213;28;20217;-80
2021/11/11 08:42:15;;;;;;;15.00;10.00;;;3.90;99.90;;;;;;5086367;28;20233;-80
2021/11/11 08:44:53;;;;;;;17.70;9.20;;;3.90;99.90;;;;;;5088477;28;20419;-77
2021/11/11 08:47:25;;;;;;;18.10;10.60;;;4.00;99.90;;;;;;5132238;27;20399;-79
2021/11/11 08:50:11;;;;;;;14.10;9.30;;;4.00;99.90;;;;;;5100471;28;20391;-78
2021/11/11 08:52:43;;;;;;;22.00;13.60;;;4.00;99.90;;;;;;5085499;28;20471;-79
2021/11/11 08:55:11;;;;;;;15.97;8.90;;;4.10;99.90;;;;;;5028661;28;20417;-80
2021/11/11 08:57:37;;;;;;;18.40;10.43;;;4.30;99.90;;;;;;5050791;28;20438;-81
2021/11/11 09:00:09;;;;;;;24.20;11.63;;;4.20;99.90;;;;;;5031600;28;20901;-81
2021/11/11 09:02:35;;;;;;;16.03;10.60;;;4.20;99.90;;;;;;5054205;28;20432;-81
2021/11/11 09:05:02;;;;;;;14.27;9.77;;;4.10;99.90;;;;;;5050133;28;20464;-80
2021/11/11 09:07:33;;;;;;;20.57;10.47;;;3.90;99.90;;;;;;5005534;28;20401;-79
2021/11/11 09:10:02;;;;;;;16.97;10.63;;;3.90;99.90;;;;;;5044113;28;20413;-80
2021/11/11 09:12:29;;;;;;;14.37;12.13;;;3.80;99.90;;;;;;5042087;28;20458;-79
2021/11/11 09:14:55;;;;;;;24.53;11.93;;;3.90;99.90;;;;;;5051347;28;20551;-79
2021/11/11 09:17:21;;;;;;;24.80;13.20;;;3.30;99.90;;;;;;5051594;28;20449;-79
2021/11/11 09:19:50;;;;;;;18.63;11.90;;;3.40;99.90;;;;;;5049274;28;20381;-79
2021/11/11 09:22:16;;;;;;;26.13;15.17;;;3.20;99.90;;;;;;5027256;28;20442;-79
2021/11/11 09:24:43;;;;;;;18.13;12.63;;;3.60;99.90;;;;;;4976463;28;20415;-80
2021/11/11 09:27:09;;;;;;;18.73;12.57;;;3.90;99.90;;;;;;5003174;28;20439;-79
2021/11/11 09:29:35;;;;;;;19.90;13.80;;;4.20;99.90;;;;;;5034213;28;20422;-79
2021/11/11 09:32:01;;;;;;;29.97;12.80;;;3.60;99.90;;;;;;5026452;28;20199;-78
2021/11/11 09:34:26;;;;;;;20.03;13.13;;;3.10;99.90;;;;;;5019621;28;20819;-79
2021/11/11 09:36:52;;;;;;;23.73;14.93;;;3.10;99.90;;;;;;5035658;28;20197;-80
2021/11/11 09:39:18;;;;;;;22.40;13.40;;;3.00;99.90;;;;;;5034217;28;20258;-81
2021/11/11 09:41:44;;;;;;;24.43;14.53;;;3.40;99.90;;;;;;5028708;28;20236;-82
2021/11/11 09:44:11;;;;;;;24.70;14.30;;;3.60;99.90;;;;;;5022354;28;20196;-81
2021/11/11 09:46:37;;;;;;;19.50;12.30;;;3.60;99.90;;;;;;5032056;28;20513;-82
2021/11/11 09:49:06;;;;;;;26.77;14.40;;;3.90;99.90;;;;;;5032798;28;20418;-81
2021/11/11 09:51:32;;;;;;;30.10;16.07;;;4.00;99.90;;;;;;5012053;28;20418;-81
2021/11/11 09:59:37;;;;;;;37.90;16.50;;;3.60;99.90;;;;;;5100676;28;20470;-81
2021/11/11 10:02:04;;;;;;;28.87;13.60;;;3.30;99.90;;;;;;5095014;27;20920;-79
2021/11/11 10:04:30;;;;;;;24.07;12.27;;;3.40;99.90;;;;;;5110225;28;20877;-82
2021/11/11 10:06:57;;;;;;;20.90;13.70;;;3.70;99.90;;;;;;5118790;28;20515;-81
2021/11/11 10:09:25;;;;;;;28.33;14.83;;;3.40;99.90;;;;;;5123449;28;20402;-82
2021/11/11 10:12:06;;;;;;;18.03;13.97;;;3.60;99.90;;;;;;5117480;28;20393;-78
2021/11/11 10:14:40;;;;;;;24.50;14.60;;;3.80;99.90;;;;;;5066952;28;20431;-78
2021/11/11 10:17:10;;;;;;;19.23;13.30;;;4.00;99.90;;;;;;5104220;28;20447;-79
2021/11/11 10:19:41;;;;;;;12.70;9.50;;;4.30;99.90;;;;;;5100004;27;20421;-80
2021/11/11 10:22:22;;;;;;;15.10;11.50;;;4.30;99.90;;;;;;5043453;28;20457;-80
2021/11/11 10:24:56;;;;;;;14.50;10.63;;;3.80;99.90;;;;;;5089586;28;20424;-80
2021/11/11 10:27:39;;;;;;;17.53;13.53;;;3.90;99.90;;;;;;5100714;28;20414;-80
2021/11/11 10:30:14;;;;;;;16.90;10.50;;;4.00;99.90;;;;;;5062346;28;20415;-79
2021/11/11 10:32:46;;;;;;;22.20;12.87;;;3.80;99.90;;;;;;5063740;28;20475;-80
2021/11/11 10:35:19;;;;;;;19.53;13.70;;;3.90;99.90;;;;;;5020026;28;20405;-80
2021/11/11 10:37:53;;;;;;;20.03;13.73;;;4.30;99.90;;;;;;4970942;28;20459;-78
2021/11/11 10:40:25;;;;;;;16.57;11.43;;;4.50;99.90;;;;;;5007398;28;20542;-79
2021/11/11 10:42:55;;;;;;;17.00;11.93;;;4.40;99.90;;;;;;5028509;28;20470;-79
2021/11/11 10:45:24;;;;;;;17.10;12.80;;;4.60;99.90;;;;;;5027771;28;20417;-78
2021/11/11 10:47:54;;;;;;;23.67;13.73;;;5.10;99.90;;;;;;5005628;28;20550;-78
2021/11/11 10:50:26;;;;;;;22.70;15.63;;;5.50;99.90;;;;;;5022904;28;20562;-80
2021/11/11 10:52:57;;;;;;;18.27;13.33;;;5.70;99.90;;;;;;5018147;28;20445;-79
2021/11/11 10:55:31;;;;;;;20.67;14.80;;;5.90;99.90;;;;;;5037932;28;20429;-78
2021/11/11 10:58:16;;;;;;;19.93;13.60;;;5.60;99.90;;;;;;5023741;28;20539;-78
2021/11/11 11:00:50;;;;;;;15.53;11.90;;;5.40;99.90;;;;;;5026135;28;20508;-78
2021/11/11 11:03:20;;;;;;;14.10;11.63;;;5.80;99.90;;;;;;5049549;28;20524;-78
2021/11/11 11:05:50;;;;;;;33.47;18.93;;;6.00;99.90;;;;;;5031090;28;20937;-78
2021/11/11 11:08:20;;;;;;;27.93;19.00;;;6.40;99.90;;;;;;5056120;28;20445;-78
2021/11/11 11:10:50;;;;;;;27.70;17.17;;;6.40;99.90;;;;;;5059279;28;20507;-78
2021/11/11 11:13:24;;;;;;;21.97;18.00;;;6.50;99.90;;;;;;5043468;28;20416;-80
2021/11/11 11:15:55;;;;;;;33.60;19.43;;;6.40;99.90;;;;;;5038483;28;20410;-78
2021/11/11 11:18:31;;;;;;;31.70;20.03;;;6.40;99.90;;;;;;5048481;28;20489;-79
2021/11/11 11:21:05;;;;;;;38.50;20.10;;;6.40;99.90;;;;;;5027297;28;20453;-79
2021/11/11 11:23:37;;;;;;;33.20;17.67;;;6.30;99.90;;;;;;5040012;28;20945;-80
2021/11/11 11:26:12;;;;;;;35.13;20.63;;;6.40;99.90;;;;;;5020232;28;20891;-79
2021/11/11 11:29:11;;;;;;;33.60;18.20;;;6.40;99.90;;;;;;5041695;28;20474;-80
2021/11/11 11:31:47;;;;;;;35.30;18.53;;;6.40;99.90;;;;;;5024023;28;20401;-80
2021/11/11 11:34:20;;;;;;;37.47;19.03;;;6.00;99.90;;;;;;5046094;28;20396;-79
2021/11/11 11:36:53;;;;;;;33.30;18.30;;;5.50;99.90;;;;;;5035885;28;20426;-80
2021/11/11 11:39:23;;;;;;;44.07;22.47;;;5.50;99.90;;;;;;5027266;28;20468;-78
2021/11/11 11:41:51;;;;;;;37.70;19.27;;;5.30;99.90;;;;;;5068876;28;20439;-79
2021/11/11 11:44:33;;;;;;;32.60;20.10;;;5.10;99.90;;;;;;5087507;28;20432;-80
2021/11/11 11:47:14;;;;;;;32.30;20.40;;;4.80;99.90;;;;;;5075891;28;20379;-79
2021/11/11 11:49:42;;;;;;;42.23;21.10;;;4.60;99.90;;;;;;5077449;28;20494;-79
2021/11/11 11:52:10;;;;;;;34.67;20.87;;;4.70;99.90;;;;;;5086137;28;20387;-78
2021/11/11 11:54:44;;;;;;;35.00;20.23;;;5.10;99.90;;;;;;5069313;28;20409;-79
2021/11/11 11:59:58;;;;;;;34.60;18.03;;;5.00;99.90;;;;;;5093870;28;20406;-78
2021/11/11 12:02:41;;;;;;;30.47;18.07;;;5.50;99.90;;;;;;5083046;28;20558;-78
2021/11/11 12:05:21;;;;;;;31.80;19.07;;;5.70;99.90;;;;;;5102317;28;20419;-79
2021/11/11 12:08:04;;;;;;;46.73;21.27;;;6.00;99.90;;;;;;5081311;28;20499;-78
2021/11/11 12:13:24;;;;;;;39.23;21.90;;;6.60;99.90;;;;;;5111598;28;20414;-80
2021/11/11 12:16:16;;;;;;;41.33;20.10;;;6.70;99.90;;;;;;5087024;28;20409;-80
2021/11/11 12:41:15;;;;;;;44.00;23.07;;;6.60;99.90;;;;;;5100352;28;20422;-81
2021/11/11 12:43:42;;;;;;;41.27;22.13;;;6.40;99.90;;;;;;5113065;28;20412;-79
2021/11/11 12:46:46;;;;;;;38.80;24.23;;;6.30;99.90;;;;;;5077939;28;20488;-82
2021/11/11 12:49:35;;;;;;;42.20;23.50;;;6.80;99.90;;;;;;5093515;28;20518;-80
2021/11/11 12:52:21;;;;;;;43.27;22.13;;;6.60;99.90;;;;;;5102622;28;20807;-81
2021/11/11 12:54:51;;;;;;;48.23;23.60;;;6.60;99.90;;;;;;5105371;28;20430;-82
2021/11/11 12:57:19;;;;;;;39.30;23.77;;;6.10;99.90;;;;;;5084570;28;20443;-81
2021/11/11 12:59:45;;;;;;;38.63;24.40;;;6.50;99.90;;;;;;5106335;28;20420;-82
2021/11/11 13:02:14;;;;;;;42.30;23.30;;;6.60;99.90;;;;;;5102469;28;20444;-81
2021/11/11 13:04:46;;;;;;;40.90;22.83;;;6.60;99.90;;;;;;5089311;28;20452;-82
2021/11/11 13:07:30;;;;;;;38.20;24.47;;;7.50;99.90;;;;;;5078202;28;20521;-80
2021/11/11 13:10:16;;;;;;;47.53;26.53;;;7.90;99.90;;;;;;5054152;28;21047;-79
2021/11/11 13:13:12;;;;;;;41.83;25.20;;;8.30;99.90;;;;;;5049596;28;20560;-79
2021/11/11 13:15:41;;;;;;;39.00;24.47;;;8.90;99.90;;;;;;5054431;28;20934;-82
2021/11/11 13:18:09;;;;;;;42.00;26.33;;;9.80;99.90;;;;;;5043327;28;20445;-83
2021/11/11 13:20:46;;;;;;;45.03;24.80;;;9.80;99.90;;;;;;5030906;28;20449;-83
2021/11/11 13:23:27;;;;;;;38.03;22.80;;;10.10;99.90;;;;;;5061551;28;20465;-84
2021/11/11 15:14:09;;;;;;;34.30;23.83;;;8.20;99.90;;;;;;5031648;28;20454;-79
2021/11/11 15:16:47;;;;;;;43.83;25.23;;;8.00;99.90;;;;;;4941088;29;20480;-80
2021/11/11 15:19:55;;;;;;;45.47;23.37;;;7.90;99.90;;;;;;4945241;29;20433;-79
2021/11/11 15:59:49;;;;;;;36.17;22.73;;;7.00;99.90;;;;;;4982520;28;20977;-81
2021/11/11 16:24:46;;;;;;;39.00;21.97;;;6.40;99.90;;;;;;4967581;28;20436;-79
2021/11/11 16:27:35;;;;;;;46.13;21.70;;;6.40;99.90;;;;;;4927419;29;20391;-78
2021/11/11 16:30:10;;;;;;;28.50;16.57;;;6.30;99.90;;;;;;4867291;29;20451;-78
2021/11/11 16:33:02;;;;;;;26.73;17.30;;;6.20;99.90;;;;;;4895548;29;20435;-78
2021/11/11 16:35:29;;;;;;;19.37;13.10;;;6.20;99.90;;;;;;4801216;29;20587;-79